Time;durP1;ratioP1;P1;durP2;ratioP2;P2;SDS_P1;SDS_P2;PMS_P1;PMS_P2;Temp;Humidity;BMP_temperature;BMP_pressure;BME280_temperature;BME280_humidity;BME280_pressure;Samples;Min_cycle;Max_cycle;Signal;HPM_P1;HPM_P2
2022/04/26 03:36:40;;;;;;;11.07;9.88;;;9.50;99.90;;;;;;4956180;29;20038;-43
2022/04/26 03:39:06;;;;;;;14.88;11.18;;;9.50;99.90;;;;;;4955790;28;20035;-45
2022/04/26 03:41:33;;;;;;;10.90;9.75;;;9.60;99.90;;;;;;4955906;28;20129;-44
2022/04/26 03:43:58;;;;;;;12.98;10.20;;;9.50;99.90;;;;;;4956109;28;20446;-42
2022/04/26 03:46:24;;;;;;;12.80;10.95;;;9.50;99.90;;;;;;4956085;28;20079;-44
2022/04/26 03:48:49;;;;;;;13.32;10.07;;;9.40;99.90;;;;;;4954363;28;20023;-44
2022/04/26 03:51:15;;;;;;;13.07;11.05;;;9.40;99.90;;;;;;4956058;28;20043;-46
2022/04/26 03:53:40;;;;;;;14.25;10.63;;;9.40;99.90;;;;;;4956020;28;20031;-44
2022/04/26 03:56:06;;;;;;;12.75;10.20;;;9.30;99.90;;;;;;4955771;28;20051;-43
2022/04/26 03:58:33;;;;;;;15.52;11.25;;;9.30;99.90;;;;;;4955569;28;20483;-47
2022/04/26 04:00:59;;;;;;;13.23;11.60;;;9.20;99.90;;;;;;4955792;28;20034;-44
2022/04/26 04:03:24;;;;;;;14.25;11.60;;;9.20;99.90;;;;;;4970652;28;20396;-42
2022/04/26 04:05:50;;;;;;;14.40;11.45;;;9.10;99.90;;;;;;4955743;28;20023;-47
2022/04/26 04:08:16;;;;;;;12.43;11.13;;;9.10;99.90;;;;;;4955419;28;20054;-49
2022/04/26 04:10:42;;;;;;;14.23;11.82;;;9.10;99.90;;;;;;4955594;28;20023;-45
2022/04/26 04:13:07;;;;;;;15.60;11.75;;;9.10;99.90;;;;;;4955111;28;20027;-43
2022/04/26 04:15:33;;;;;;;15.30;12.02;;;9.10;99.90;;;;;;4955626;28;20376;-43
2022/04/26 04:17:58;;;;;;;16.08;12.23;;;9.00;99.90;;;;;;4955088;28;20039;-47
2022/04/26 04:20:24;;;;;;;16.20;11.52;;;8.90;99.90;;;;;;4955822;28;20073;-45
2022/04/26 04:22:53;;;;;;;13.35;11.88;;;8.90;99.90;;;;;;4955350;28;20027;-43
2022/04/26 04:25:19;;;;;;;18.25;13.60;;;8.80;99.90;;;;;;4955291;28;20027;-46
2022/04/26 04:27:45;;;;;;;15.95;13.43;;;8.80;99.90;;;;;;4954795;28;20023;-48
2022/04/26 04:30:11;;;;;;;18.42;14.95;;;8.80;99.90;;;;;;4955207;28;20019;-44
2022/04/26 04:32:37;;;;;;;19.05;14.10;;;8.80;99.90;;;;;;4955357;28;20351;-44
2022/04/26 04:35:03;;;;;;;16.23;13.60;;;8.70;99.90;;;;;;4954858;28;20035;-45
2022/04/26 04:37:29;;;;;;;18.17;13.98;;;8.90;99.90;;;;;;4954812;28;20102;-40
2022/04/26 04:39:54;;;;;;;21.45;13.77;;;8.90;99.90;;;;;;4980326;23;20194;-41
2022/04/26 04:42:21;;;;;;;18.75;14.88;;;8.90;99.90;;;;;;4974514;28;20089;-43
2022/04/26 04:44:47;;;;;;;16.77;14.70;;;9.00;99.90;;;;;;4974989;28;20015;-43
2022/04/26 04:47:12;;;;;;;17.80;14.82;;;9.00;99.90;;;;;;4974438;28;20026;-44
2022/04/26 04:49:38;;;;;;;16.25;13.52;;;9.10;99.90;;;;;;4974067;28;20027;-45
2022/04/26 04:52:04;;;;;;;17.95;13.63;;;9.10;99.90;;;;;;4974128;28;20027;-45
2022/04/26 04:54:29;;;;;;;17.33;14.15;;;9.20;99.90;;;;;;4974154;28;20081;-43
2022/04/26 04:56:55;;;;;;;16.35;13.13;;;9.30;99.90;;;;;;4973851;28;20110;-43
2022/04/26 04:59:21;;;;;;;16.15;14.00;;;9.30;99.90;;;;;;4973967;28;20034;-43
2022/04/26 05:01:46;;;;;;;23.60;15.63;;;9.30;99.90;;;;;;4974105;28;20034;-48
2022/04/26 05:04:12;;;;;;;21.65;15.02;;;9.30;99.90;;;;;;4974190;28;20492;-44
2022/04/26 05:06:37;;;;;;;19.42;15.68;;;9.40;99.90;;;;;;4973871;28;20105;-47
2022/04/26 05:09:03;;;;;;;18.83;15.35;;;9.40;99.90;;;;;;4972112;28;20023;-46
2022/04/26 05:11:28;;;;;;;18.02;15.13;;;9.50;99.90;;;;;;4973789;28;20038;-44
2022/04/26 05:13:54;;;;;;;19.08;16.42;;;9.60;99.90;;;;;;4973583;28;20113;-46
2022/04/26 05:16:19;;;;;;;24.23;16.58;;;9.50;99.90;;;;;;4973677;28;20030;-44
2022/04/26 05:18:45;;;;;;;17.77;14.70;;;9.50;99.90;;;;;;4973087;28;20372;-42
2022/04/26 05:21:13;;;;;;;17.15;14.75;;;9.40;99.90;;;;;;4972211;28;20034;-44
2022/04/26 05:26:23;;;;;;;22.35;16.15;;;9.40;99.90;;;;;;4973543;28;20454;-45
2022/04/26 05:28:49;;;;;;;18.65;16.50;;;9.50;99.90;;;;;;4973037;28;20019;-41
2022/04/26 05:31:14;;;;;;;21.02;14.80;;;9.50;99.90;;;;;;4973184;28;20054;-40
2022/04/26 05:33:40;;;;;;;19.70;16.33;;;9.40;99.90;;;;;;4973248;28;20035;-43
2022/04/26 05:36:06;;;;;;;21.05;15.40;;;9.40;99.90;;;;;;4973269;28;20034;-42
2022/04/26 05:38:31;;;;;;;20.48;15.32;;;9.40;99.90;;;;;;4972296;28;20039;-44
2022/04/26 05:40:57;;;;;;;16.67;14.90;;;9.40;99.90;;;;;;4970790;28;20038;-44
2022/04/26 05:43:23;;;;;;;17.75;15.43;;;9.40;99.90;;;;;;4961333;28;20030;-43
2022/04/26 05:45:48;;;;;;;21.30;14.27;;;9.40;99.90;;;;;;4953747;28;20112;-44
2022/04/26 05:48:14;;;;;;;16.65;13.90;;;9.40;99.90;;;;;;4971376;28;20052;-42
2022/04/26 05:50:41;;;;;;;16.63;14.82;;;9.50;99.90;;;;;;4973033;28;20027;-42
2022/04/26 05:53:07;;;;;;;21.17;15.18;;;9.50;99.90;;;;;;4973045;28;20019;-41
2022/04/26 05:55:32;;;;;;;20.13;14.80;;;9.60;99.90;;;;;;4972795;28;20023;-42
2022/04/26 05:57:58;;;;;;;15.82;13.20;;;9.70;99.90;;;;;;4971955;28;20383;-42
2022/04/26 06:00:23;;;;;;;23.33;15.02;;;9.70;99.90;;;;;;4970511;28;20117;-47
2022/04/26 06:02:49;;;;;;;21.33;15.63;;;9.70;99.90;;;;;;4953524;28;20046;-43
2022/04/26 06:05:14;;;;;;;19.75;15.23;;;9.70;99.90;;;;;;4961951;28;20153;-41
2022/04/26 06:07:40;;;;;;;20.17;15.85;;;9.70;99.90;;;;;;4972559;28;20029;-44
2022/04/26 06:10:07;;;;;;;21.33;16.10;;;9.80;99.90;;;;;;4972676;28;20034;-45
2022/04/26 06:12:34;;;;;;;23.58;18.13;;;9.70;99.90;;;;;;4972652;28;20034;-43
2022/04/26 06:15:00;;;;;;;22.20;17.65;;;9.70;99.90;;;;;;4972951;28;20039;-47
2022/04/26 06:17:27;;;;;;;20.77;16.67;;;9.70;99.90;;;;;;4972748;28;20038;-46
2022/04/26 06:19:52;;;;;;;19.80;16.88;;;9.70;99.90;;;;;;4972729;28;20030;-44
2022/04/26 06:22:18;;;;;;;22.80;17.45;;;9.60;99.90;;;;;;4973048;28;20034;-45
2022/04/26 06:24:44;;;;;;;18.15;15.90;;;9.60;99.90;;;;;;4972717;28;20030;-42
2022/04/26 06:27:10;;;;;;;23.75;16.48;;;9.70;99.90;;;;;;4972617;28;20045;-43
2022/04/26 06:29:35;;;;;;;22.20;16.50;;;9.70;99.90;;;;;;4973019;28;20116;-47
2022/04/26 06:32:02;;;;;;;21.35;16.55;;;9.70;99.90;;;;;;4973333;28;20027;-45
2022/04/26 06:34:27;;;;;;;22.27;16.52;;;9.70;99.90;;;;;;4972593;28;20434;-46
2022/04/26 06:36:53;;;;;;;21.95;16.23;;;9.70;99.90;;;;;;4975052;28;20082;-45
2022/04/26 06:39:18;;;;;;;20.08;16.48;;;9.70;99.90;;;;;;4976205;28;20034;-44
2022/04/26 06:41:44;;;;;;;20.02;15.95;;;9.60;99.90;;;;;;4976505;28;20027;-44
2022/04/26 06:44:10;;;;;;;17.75;15.25;;;9.60;99.90;;;;;;4976599;28;20398;-47
2022/04/26 06:46:36;;;;;;;16.05;14.18;;;9.50;99.90;;;;;;4976429;28;20031;-43
2022/04/26 06:49:02;;;;;;;17.35;13.88;;;9.50;99.90;;;;;;4976005;28;20098;-47
2022/04/26 06:51:33;;;;;;;16.48;14.60;;;9.60;99.90;;;;;;4976567;28;20402;-43
2022/04/26 06:53:58;;;;;;;16.60;14.27;;;9.60;99.90;;;;;;4976425;28;20038;-45
2022/04/26 06:56:24;;;;;;;16.65;14.85;;;9.60;99.90;;;;;;4976420;28;20027;-45
2022/04/26 06:58:49;;;;;;;20.58;14.73;;;9.80;99.90;;;;;;4975808;28;20037;-43
2022/04/26 07:01:15;;;;;;;16.77;14.25;;;9.70;99.90;;;;;;4976016;28;20023;-46
2022/04/26 07:03:40;;;;;;;18.90;15.45;;;9.70;99.90;;;;;;4976303;28;20031;-45
2022/04/26 07:06:06;;;;;;;19.00;15.55;;;9.70;99.90;;;;;;4976135;28;20027;-46
2022/04/26 07:08:31;;;;;;;14.95;13.45;;;9.70;99.90;;;;;;4975115;28;20023;-43
2022/04/26 07:10:57;;;;;;;15.75;12.95;;;9.70;99.90;;;;;;4990431;28;20035;-50
2022/04/26 07:13:22;;;;;;;17.40;13.35;;;9.70;99.90;;;;;;4974315;28;20035;-47
2022/04/26 07:15:48;;;;;;;14.10;12.68;;;9.70;99.90;;;;;;4975800;28;20121;-44
2022/04/26 07:18:14;;;;;;;15.00;13.32;;;9.80;99.90;;;;;;4975449;28;20066;-47
2022/04/26 07:20:40;;;;;;;17.00;12.98;;;9.80;99.90;;;;;;4975226;28;20042;-44
2022/04/26 07:23:07;;;;;;;13.43;10.82;;;10.00;99.90;;;;;;4961610;28;20023;-43
2022/04/26 07:25:33;;;;;;;13.15;10.85;;;10.00;99.90;;;;;;4972308;28;20368;-48
2022/04/26 07:27:58;;;;;;;14.65;11.55;;;10.00;99.90;;;;;;4956147;28;20054;-48
2022/04/26 07:30:32;;;;;;;16.02;11.23;;;10.10;99.90;;;;;;4965827;28;20126;-45
2022/04/26 07:35:42;;;;;;;16.08;12.30;;;10.20;99.90;;;;;;4975539;28;20081;-47
2022/04/26 07:38:07;;;;;;;15.57;11.73;;;10.30;99.90;;;;;;4975154;28;20027;-48
2022/04/26 07:40:33;;;;;;;14.13;12.20;;;10.30;99.90;;;;;;4974185;28;20038;-46
2022/04/26 07:42:59;;;;;;;13.15;11.80;;;10.20;99.90;;;;;;4975077;28;20039;-46
2022/04/26 07:45:25;;;;;;;13.30;10.45;;;10.30;99.90;;;;;;4962348;28;20096;-45
2022/04/26 07:47:51;;;;;;;11.45;9.48;;;10.30;99.90;;;;;;4974351;28;20018;-45
2022/04/26 07:50:17;;;;;;;12.23;10.98;;;10.20;99.90;;;;;;4975147;28;20049;-47
2022/04/26 07:52:42;;;;;;;12.50;10.93;;;10.40;99.90;;;;;;4973911;28;20034;-47
2022/04/26 07:55:08;;;;;;;12.48;10.07;;;10.50;99.90;;;;;;4990220;28;20034;-45
2022/04/26 07:57:34;;;;;;;11.02;9.52;;;10.50;99.90;;;;;;4975042;28;20037;-49
2022/04/26 08:00:00;;;;;;;10.02;9.10;;;10.50;99.90;;;;;;4974484;28;20109;-42
2022/04/26 08:02:26;;;;;;;11.52;10.32;;;10.60;99.90;;;;;;4975233;28;20482;-41
2022/04/26 08:04:53;;;;;;;10.65;9.52;;;10.60;99.90;;;;;;4971950;28;20034;-47
2022/04/26 08:07:18;;;;;;;13.77;10.00;;;10.60;99.90;;;;;;4955532;28;20031;-43
2022/04/26 08:09:44;;;;;;;12.93;10.07;;;10.70;99.90;;;;;;4965075;28;20526;-43
2022/04/26 08:12:10;;;;;;;11.38;9.50;;;10.70;99.90;;;;;;4975051;28;20102;-45
2022/04/26 08:14:35;;;;;;;10.65;9.52;;;10.70;99.90;;;;;;4975255;28;20070;-48
2022/04/26 08:17:01;;;;;;;12.13;9.00;;;10.70;99.90;;;;;;4974647;28;20031;-42
2022/04/26 08:19:26;;;;;;;7.95;7.15;;;10.70;99.90;;;;;;4974590;28;20484;-42
2022/04/26 08:21:52;;;;;;;12.57;7.32;;;10.60;99.90;;;;;;4974386;28;20089;-44
2022/04/26 08:29:46;;;;;;;9.48;7.60;;;10.40;99.90;;;;;;4963048;28;20082;-44
2022/04/26 08:32:13;;;;;;;8.75;7.90;;;10.50;99.90;;;;;;4974593;28;20395;-43
2022/04/26 08:34:39;;;;;;;8.07;7.28;;;10.60;99.90;;;;;;4974416;28;20031;-43
2022/04/26 08:37:05;;;;;;;7.65;6.85;;;10.60;99.90;;;;;;4975873;28;20034;-44
2022/04/26 08:39:31;;;;;;;6.45;5.75;;;10.60;99.90;;;;;;4974612;28;20034;-42
2022/04/26 08:41:58;;;;;;;8.00;4.95;;;10.60;99.90;;;;;;4973092;28;20088;-43
2022/04/26 08:44:27;;;;;;;4.07;3.78;;;10.50;99.90;;;;;;4979100;28;20091;-41
2022/04/26 08:52:21;;;;;;;2.60;2.40;;;10.50;99.90;;;;;;4974426;28;20105;-44
2022/04/26 08:54:46;;;;;;;1.92;1.83;;;10.40;99.90;;;;;;4974424;28;20050;-44
2022/04/26 08:57:13;;;;;;;2.58;2.17;;;10.40;99.90;;;;;;4973008;28;20027;-42
2022/04/26 08:59:52;;;;;;;2.42;2.22;;;10.40;99.90;;;;;;4960440;28;20028;-41
2022/04/26 09:02:20;;;;;;;2.65;2.45;;;10.40;99.90;;;;;;4956007;28;20030;-41
2022/04/26 09:04:48;;;;;;;2.70;2.45;;;10.50;99.90;;;;;;4973108;28;20189;-47
2022/04/26 09:07:33;;;;;;;3.70;3.00;;;10.40;99.90;;;;;;4973671;28;20263;-43
2022/04/26 09:10:08;;;;;;;3.10;2.90;;;10.40;99.90;;;;;;4973703;28;20023;-42
2022/04/26 09:13:14;;;;;;;3.72;2.97;;;10.40;99.90;;;;;;4972635;28;20026;-43
2022/04/26 09:15:45;;;;;;;3.47;3.17;;;10.40;99.90;;;;;;4974183;28;20030;-46
2022/04/26 09:18:28;;;;;;;3.28;3.03;;;10.50;99.90;;;;;;4973649;28;20033;-45
2022/04/26 09:20:55;;;;;;;3.08;2.80;;;10.60;99.90;;;;;;4974547;28;20030;-42
2022/04/26 09:23:28;;;;;;;3.83;2.53;;;10.80;99.90;;;;;;4974404;28;20333;-43
2022/04/26 09:26:07;;;;;;;2.95;2.75;;;10.90;99.90;;;;;;4974343;28;20398;-44
2022/04/26 09:28:34;;;;;;;3.00;2.17;;;11.00;99.90;;;;;;4972955;28;20110;-44
2022/04/26 09:31:00;;;;;;;3.20;2.67;;;11.10;99.90;;;;;;4973738;28;20027;-44
2022/04/26 09:33:40;;;;;;;4.15;2.30;;;11.20;99.90;;;;;;4973337;28;20025;-49
2022/04/26 09:36:11;;;;;;;2.05;1.90;;;11.30;99.90;;;;;;4973839;28;20042;-41
2022/04/26 09:38:41;;;;;;;2.03;1.90;;;11.40;99.90;;;;;;4987960;28;20061;-43
2022/04/26 09:41:09;;;;;;;1.90;1.73;;;11.50;99.90;;;;;;4978821;28;20037;-42
2022/04/26 09:43:36;;;;;;;4.18;1.73;;;11.70;99.90;;;;;;4975592;28;20041;-42
2022/04/26 09:46:03;;;;;;;1.75;1.58;;;11.60;99.90;;;;;;4975143;28;20058;-45
2022/04/26 09:48:36;;;;;;;2.03;1.92;;;11.60;99.90;;;;;;4973948;28;20023;-41
2022/04/26 09:51:03;;;;;;;2.28;2.13;;;11.60;99.90;;;;;;4974602;28;20097;-46
2022/04/26 09:53:32;;;;;;;1.95;1.73;;;11.60;99.90;;;;;;4974051;28;20022;-42
2022/04/26 09:55:59;;;;;;;2.22;1.88;;;11.70;99.90;;;;;;4974915;28;20023;-44
2022/04/26 09:58:27;;;;;;;3.03;1.42;;;11.80;99.90;;;;;;4977334;28;20141;-47
2022/04/26 10:00:54;;;;;;;1.50;1.40;;;11.60;99.90;;;;;;4972463;28;20043;-42
2022/04/26 10:03:23;;;;;;;1.48;1.30;;;11.60;99.90;;;;;;4972783;28;20034;-44
2022/04/26 10:05:50;;;;;;;5.05;1.33;;;11.60;99.90;;;;;;4972150;28;20085;-43
2022/04/26 10:08:17;;;;;;;0.88;0.88;;;11.50;99.90;;;;;;4972207;28;20022;-42
2022/04/26 10:10:46;;;;;;;1.38;1.38;;;11.50;99.90;;;;;;4969747;28;20035;-43
2022/04/26 10:13:31;;;;;;;1.30;1.20;;;11.50;99.90;;;;;;4973027;28;20023;-43
2022/04/26 10:16:05;;;;;;;1.40;1.30;;;11.60;99.90;;;;;;4973023;28;20100;-42
2022/04/26 10:18:32;;;;;;;1.40;1.35;;;11.60;99.90;;;;;;4987212;28;20126;-47
2022/04/26 10:20:59;;;;;;;1.40;1.30;;;11.60;99.90;;;;;;4970783;28;20041;-48
2022/04/26 10:23:24;;;;;;;1.83;1.40;;;11.60;99.90;;;;;;4972788;28;20029;-43
2022/04/26 10:26:22;;;;;;;1.10;1.10;;;11.60;99.90;;;;;;4972751;28;20031;-45
2022/04/26 10:28:51;;;;;;;1.00;1.00;;;11.50;99.90;;;;;;4973781;28;20417;-42
2022/04/26 10:31:17;;;;;;;1.13;1.13;;;11.70;99.90;;;;;;4972887;28;20030;-43
2022/04/26 10:33:47;;;;;;;4.88;1.25;;;11.80;99.90;;;;;;4985612;28;20029;-42
2022/04/26 10:36:27;;;;;;;1.00;1.00;;;11.90;99.90;;;;;;4981604;28;20023;-43
2022/04/26 10:39:05;;;;;;;0.85;0.85;;;12.10;99.90;;;;;;4972363;28;20059;-47
2022/04/26 10:41:42;;;;;;;1.23;1.05;;;12.20;99.90;;;;;;4992960;23;20051;-41
2022/04/26 10:44:16;;;;;;;40.67;27.23;;;12.30;99.90;;;;;;4971410;28;20026;-46
2022/04/26 10:46:44;;;;;;;3.30;2.90;;;12.30;99.90;;;;;;4972181;28;20031;-45
2022/04/26 10:49:23;;;;;;;3.97;3.58;;;12.50;99.90;;;;;;4972304;28;20098;-43
2022/04/26 10:52:19;;;;;;;2.15;2.00;;;12.60;99.90;;;;;;4972475;28;20023;-41
2022/04/26 10:55:01;;;;;;;3.55;1.60;;;12.60;99.90;;;;;;4965663;28;20058;-40
2022/04/26 10:57:27;;;;;;;1.52;1.42;;;12.60;99.90;;;;;;4972164;28;20022;-39
2022/04/26 11:00:00;;;;;;;1.50;1.40;;;12.60;99.90;;;;;;4972634;28;20062;-42
2022/04/26 11:02:28;;;;;;;2.83;2.00;;;12.50;99.90;;;;;;4972505;28;20092;-44
2022/04/26 11:05:11;;;;;;;1.98;1.83;;;12.30;99.90;;;;;;4973698;28;20019;-43
2022/04/26 11:07:39;;;;;;;2.63;1.60;;;12.10;99.90;;;;;;4972435;28;20414;-43
2022/04/26 11:10:06;;;;;;;5.47;1.83;;;11.90;99.90;;;;;;4972187;28;20019;-47
2022/04/26 11:12:34;;;;;;;5.28;2.13;;;11.90;99.90;;;;;;4972338;28;20084;-47
2022/04/26 11:15:02;;;;;;;1.92;1.83;;;11.70;99.90;;;;;;4972274;28;20050;-40
2022/04/26 11:17:29;;;;;;;2.83;2.55;;;11.50;99.90;;;;;;4972163;28;20395;-39
2022/04/26 11:20:00;;;;;;;1.83;1.73;;;11.40;99.90;;;;;;4971998;28;20493;-44
2022/04/26 11:22:27;;;;;;;2.00;1.85;;;11.30;99.90;;;;;;4974090;28;20062;-49
2022/04/26 11:28:00;;;;;;;1.73;1.63;;;11.30;99.90;;;;;;4975692;28;20033;-46
2022/04/26 11:30:30;;;;;;;1.70;1.60;;;11.20;99.90;;;;;;4975864;28;20015;-46
2022/04/26 11:33:01;;;;;;;1.58;1.48;;;11.20;99.90;;;;;;4975829;28;20031;-43
2022/04/26 11:35:27;;;;;;;1.10;1.10;;;11.20;99.90;;;;;;4975795;28;20023;-48
2022/04/26 11:37:55;;;;;;;1.45;1.35;;;11.30;99.90;;;;;;4975330;28;20051;-40
2022/04/26 11:40:32;;;;;;;2.97;1.27;;;11.20;99.90;;;;;;4975362;28;20227;-44
2022/04/26 11:43:05;;;;;;;1.33;1.23;;;11.20;99.90;;;;;;4975636;28;20467;-45
2022/04/26 11:45:34;;;;;;;0.88;0.88;;;11.20;99.90;;;;;;4975853;28;20027;-47
2022/04/26 11:48:00;;;;;;;0.73;0.73;;;11.20;99.90;;;;;;4974705;28;20027;-44
2022/04/26 11:50:27;;;;;;;1.20;1.10;;;11.20;99.90;;;;;;4975139;28;20023;-48
2022/04/26 11:53:10;;;;;;;0.63;0.63;;;11.10;99.90;;;;;;4975157;28;20019;-43
2022/04/26 11:55:40;;;;;;;0.77;0.77;;;11.20;99.90;;;;;;4975420;28;20122;-45
2022/04/26 11:58:07;;;;;;;4.13;3.22;;;11.10;99.90;;;;;;4975126;28;20487;-44
2022/04/26 12:00:34;;;;;;;1.33;1.23;;;11.10;99.90;;;;;;4975126;28;20716;-39
2022/04/26 12:03:00;;;;;;;1.00;0.90;;;11.10;99.90;;;;;;4975287;28;20039;-44
2022/04/26 12:05:26;;;;;;;1.50;1.40;;;11.10;99.90;;;;;;4974902;28;20030;-45
2022/04/26 12:07:52;;;;;;;1.70;1.00;;;11.00;99.90;;;;;;4973682;28;20022;-40
2022/04/26 12:10:32;;;;;;;1.60;1.50;;;11.10;99.90;;;;;;4974990;28;20034;-49
2022/04/26 12:13:05;;;;;;;2.10;2.00;;;10.80;99.90;;;;;;4975165;28;20018;-50
2022/04/26 12:15:33;;;;;;;4.53;3.42;;;10.60;99.90;;;;;;4974929;28;20023;-47
2022/04/26 12:18:09;;;;;;;3.72;3.13;;;10.60;99.90;;;;;;4974408;28;20383;-48
2022/04/26 12:20:38;;;;;;;2.70;2.50;;;10.50;99.90;;;;;;4974611;28;20106;-45
2022/04/26 12:23:05;;;;;;;3.25;2.95;;;10.40;99.90;;;;;;4974693;28;20034;-46
2022/04/26 12:25:33;;;;;;;3.10;2.90;;;10.30;99.90;;;;;;4974680;28;20026;-48
2022/04/26 12:28:07;;;;;;;3.72;3.42;;;10.20;99.90;;;;;;4974346;28;20030;-44
2022/04/26 12:30:37;;;;;;;4.57;3.80;;;10.10;99.90;;;;;;4974495;28;20015;-48
2022/04/26 12:33:03;;;;;;;3.97;3.58;;;10.10;99.90;;;;;;4974317;28;20577;-40
2022/04/26 12:35:29;;;;;;;6.88;3.08;;;10.10;99.90;;;;;;4974310;28;20042;-46
2022/04/26 12:38:06;;;;;;;2.75;2.53;;;10.20;99.90;;;;;;4974215;28;20030;-45
2022/04/26 12:40:31;;;;;;;1.95;1.85;;;10.20;99.90;;;;;;4974051;28;20090;-48
2022/04/26 12:42:57;;;;;;;1.50;1.40;;;10.10;99.90;;;;;;4974508;28;20050;-45
2022/04/26 12:45:24;;;;;;;1.25;1.20;;;10.00;99.90;;;;;;4974402;28;20027;-48
2022/04/26 12:51:20;;;;;;;1.23;1.23;;;9.90;99.90;;;;;;4974428;28;20455;-45
2022/04/26 12:53:50;;;;;;;1.55;1.42;;;9.80;99.90;;;;;;4974339;28;20058;-49
2022/04/26 12:56:17;;;;;;;1.90;1.60;;;9.70;99.90;;;;;;4974127;28;20509;-44
2022/04/26 12:58:44;;;;;;;1.40;1.30;;;9.70;99.90;;;;;;4973320;28;20030;-48
2022/04/26 13:01:11;;;;;;;2.67;1.50;;;9.70;99.90;;;;;;4973335;28;20023;-44
2022/04/26 13:03:37;;;;;;;1.98;1.88;;;9.70;99.90;;;;;;4973882;28;20062;-48
2022/04/26 13:06:13;;;;;;;2.25;1.90;;;9.80;99.90;;;;;;4974550;28;20462;-43
2022/04/26 13:08:39;;;;;;;2.17;1.98;;;9.80;99.90;;;;;;4974290;28;20141;-41
2022/04/26 13:11:06;;;;;;;14.93;10.32;;;9.90;99.90;;;;;;4973896;28;20504;-48
2022/04/26 13:13:33;;;;;;;17.00;11.05;;;10.00;99.90;;;;;;4973201;28;20030;-47
2022/04/26 13:15:59;;;;;;;8.00;3.70;;;10.10;99.90;;;;;;4968081;28;20027;-53
2022/04/26 13:18:25;;;;;;;2.58;2.17;;;10.20;99.90;;;;;;4954414;28;20033;-51
2022/04/26 13:20:53;;;;;;;2.40;2.20;;;10.30;99.90;;;;;;4965744;28;20150;-40
2022/04/26 13:23:19;;;;;;;2.40;2.20;;;10.40;99.90;;;;;;4961815;28;20155;-47
2022/04/26 13:25:44;;;;;;;4.13;2.33;;;10.50;99.90;;;;;;4954632;28;20114;-44
2022/04/26 13:28:10;;;;;;;1.95;1.80;;;10.50;99.90;;;;;;4972443;28;20478;-44
2022/04/26 13:30:36;;;;;;;1.48;1.40;;;10.40;99.90;;;;;;4973418;28;20117;-45
2022/04/26 13:33:03;;;;;;;3.50;1.70;;;10.40;99.90;;;;;;4973681;28;20066;-48
2022/04/26 13:35:29;;;;;;;1.63;1.50;;;10.40;99.90;;;;;;4973616;28;20105;-49
2022/04/26 13:37:57;;;;;;;1.98;1.80;;;10.50;99.90;;;;;;4973256;28;20035;-41
2022/04/26 13:40:23;;;;;;;2.17;1.73;;;10.40;99.90;;;;;;4988135;28;20035;-45
2022/04/26 13:42:48;;;;;;;1.73;1.63;;;10.40;99.90;;;;;;4973350;28;20041;-49
2022/04/26 13:45:14;;;;;;;1.40;1.40;;;10.40;99.90;;;;;;4972916;28;20493;-43
2022/04/26 13:47:40;;;;;;;2.10;1.90;;;10.40;99.90;;;;;;4972636;28;20030;-44
2022/04/26 13:50:07;;;;;;;1.90;1.80;;;10.40;99.90;;;;;;4971685;28;20428;-44
2022/04/26 13:52:33;;;;;;;1.95;1.75;;;10.40;99.90;;;;;;4991061;28;20030;-43
2022/04/26 13:54:59;;;;;;;2.90;2.30;;;10.50;99.90;;;;;;4980459;28;20085;-48
2022/04/26 13:57:25;;;;;;;5.53;2.28;;;10.50;99.90;;;;;;4973808;28;20065;-51
2022/04/26 13:59:50;;;;;;;2.20;2.00;;;10.50;99.90;;;;;;4972961;28;20154;-45
2022/04/26 14:02:16;;;;;;;3.35;2.78;;;10.60;99.90;;;;;;4972937;28;20038;-42
2022/04/26 14:04:42;;;;;;;5.30;4.15;;;10.70;99.90;;;;;;4972801;28;20019;-43
2022/04/26 14:07:08;;;;;;;2.42;2.25;;;10.70;99.90;;;;;;4976129;28;20019;-45
2022/04/26 14:09:34;;;;;;;3.17;2.40;;;10.70;99.90;;;;;;4992964;28;20041;-43
2022/04/26 14:12:00;;;;;;;2.95;2.67;;;10.80;99.90;;;;;;4992351;28;20077;-48
2022/04/26 14:22:41;;;;;;;1.92;1.80;;;10.80;99.90;;;;;;4992707;28;20160;-45
2022/04/26 14:25:08;;;;;;;2.15;2.05;;;10.80;99.90;;;;;;4992141;28;20023;-46
2022/04/26 14:27:34;;;;;;;5.60;1.98;;;10.90;99.90;;;;;;4978085;28;20031;-44
2022/04/26 14:30:00;;;;;;;2.08;1.98;;;11.00;99.90;;;;;;4956059;28;20027;-44
2022/04/26 14:32:26;;;;;;;2.67;2.47;;;10.90;99.90;;;;;;4957007;28;20018;-45
2022/04/26 14:34:51;;;;;;;3.92;2.10;;;10.90;99.90;;;;;;4972319;28;20042;-37
2022/04/26 14:37:17;;;;;;;2.80;2.00;;;10.90;99.90;;;;;;4972304;28;20035;-44
2022/04/26 14:39:43;;;;;;;4.25;2.30;;;10.90;99.90;;;;;;4972579;28;20114;-45
2022/04/26 14:42:09;;;;;;;2.30;2.20;;;10.90;99.90;;;;;;4972464;28;20035;-48
2022/04/26 14:44:36;;;;;;;2.90;2.40;;;10.90;99.90;;;;;;4974811;28;20390;-50
2022/04/26 14:47:06;;;;;;;3.17;1.95;;;11.00;99.90;;;;;;4973288;28;20019;-42
2022/04/26 14:49:32;;;;;;;2.50;2.30;;;11.00;99.90;;;;;;4973418;28;20483;-43
2022/04/26 14:51:58;;;;;;;2.70;2.50;;;11.00;99.90;;;;;;4974647;28;20035;-45
2022/04/26 14:54:23;;;;;;;3.13;2.90;;;11.00;99.90;;;;;;4974610;28;20024;-46
2022/04/26 14:56:50;;;;;;;3.28;2.97;;;11.00;99.90;;;;;;4974879;28;20167;-42
2022/04/26 14:59:17;;;;;;;4.32;3.28;;;10.90;99.90;;;;;;5009959;28;20566;-45
2022/04/26 15:01:48;;;;;;;4.55;4.15;;;10.90;99.90;;;;;;4976617;28;20038;-44
2022/04/26 15:04:15;;;;;;;8.02;4.60;;;10.90;99.90;;;;;;4976719;28;20513;-48
2022/04/26 15:06:41;;;;;;;9.13;4.97;;;10.60;99.90;;;;;;4976256;28;20026;-46
2022/04/26 15:17:19;;;;;;;6.03;5.15;;;10.30;99.90;;;;;;4976013;28;20045;-42
2022/04/26 15:19:44;;;;;;;5.80;5.30;;;10.40;99.90;;;;;;4975953;28;20035;-48
2022/04/26 15:22:13;;;;;;;5.28;4.78;;;10.40;99.90;;;;;;4976264;28;20553;-43
2022/04/26 15:24:40;;;;;;;6.00;5.07;;;10.50;99.90;;;;;;4976552;28;20019;-44
2022/04/26 15:27:06;;;;;;;5.40;4.97;;;10.50;99.90;;;;;;4976031;28;20038;-46
2022/04/26 15:29:31;;;;;;;7.07;5.05;;;10.60;99.90;;;;;;4976150;28;20066;-41
2022/04/26 15:31:57;;;;;;;7.15;5.63;;;10.60;99.90;;;;;;4976128;28;20046;-44
2022/04/26 15:34:23;;;;;;;6.25;5.38;;;10.60;99.90;;;;;;4975200;28;20572;-44
2022/04/26 15:36:48;;;;;;;6.57;4.95;;;10.70;99.90;;;;;;4977087;28;20042;-42
2022/04/26 15:39:14;;;;;;;5.93;5.32;;;10.70;99.90;;;;;;4977412;28;20031;-43
2022/04/26 15:41:39;;;;;;;8.57;5.85;;;10.80;99.90;;;;;;4976241;28;20089;-42
2022/04/26 15:44:05;;;;;;;8.95;5.88;;;10.70;99.90;;;;;;4975690;28;20019;-43
2022/04/26 15:46:31;;;;;;;6.18;5.13;;;10.70;99.90;;;;;;4975450;28;20474;-43
2022/04/26 15:48:57;;;;;;;6.25;5.18;;;10.60;99.90;;;;;;4975420;28;20033;-39
2022/04/26 15:51:25;;;;;;;9.82;5.78;;;10.60;99.90;;;;;;4975446;28;20026;-43
2022/04/26 15:53:51;;;;;;;5.90;5.30;;;10.50;99.90;;;;;;4975446;28;20379;-46
2022/04/26 15:56:16;;;;;;;7.18;5.63;;;10.60;99.90;;;;;;4975250;28;20150;-45
2022/04/26 15:58:42;;;;;;;6.03;5.43;;;10.60;99.90;;;;;;4974965;28;20031;-49
2022/04/26 16:01:09;;;;;;;9.65;6.15;;;10.60;99.90;;;;;;4975179;28;20038;-39
2022/04/26 16:03:35;;;;;;;6.93;6.10;;;10.60;99.90;;;;;;4975175;28;20027;-48
2022/04/26 16:06:02;;;;;;;6.10;5.50;;;10.60;99.90;;;;;;4975688;28;20030;-46
2022/04/26 16:08:27;;;;;;;6.85;6.15;;;10.60;99.90;;;;;;4976623;28;20031;-40
2022/04/26 16:21:50;;;;;;;10.93;6.78;;;10.70;99.90;;;;;;4974576;28;20315;-46
2022/04/26 16:24:17;;;;;;;6.57;5.75;;;10.60;99.90;;;;;;4973754;28;20034;-51
2022/04/26 16:26:43;;;;;;;6.70;6.00;;;10.60;99.90;;;;;;4974435;28;20424;-44
2022/04/26 16:29:09;;;;;;;7.45;6.75;;;10.50;99.90;;;;;;4974394;28;20069;-40
2022/04/26 16:31:34;;;;;;;7.40;6.70;;;10.50;99.90;;;;;;4974399;28;20023;-46
2022/04/26 16:34:02;;;;;;;7.25;6.55;;;10.40;99.90;;;;;;4974354;28;20034;-46
2022/04/26 16:36:28;;;;;;;8.88;6.68;;;10.20;99.90;;;;;;4974662;28;20026;-44
2022/04/26 16:38:54;;;;;;;11.07;8.65;;;10.10;99.90;;;;;;4974882;28;20662;-40
2022/04/26 16:41:21;;;;;;;11.10;7.25;;;10.10;99.90;;;;;;4985107;23;20043;-45
2022/04/26 16:43:48;;;;;;;9.55;8.13;;;10.00;99.90;;;;;;4955074;28;20035;-49
2022/04/26 16:46:18;;;;;;;6.65;5.95;;;10.10;99.90;;;;;;4954851;28;20019;-43
2022/04/26 16:48:45;;;;;;;9.20;6.63;;;10.20;99.90;;;;;;4954782;28;20035;-41
2022/04/26 16:51:11;;;;;;;7.80;6.70;;;10.10;99.90;;;;;;4955094;28;20023;-47
2022/04/26 16:53:38;;;;;;;8.88;6.68;;;10.20;99.90;;;;;;4953589;28;20408;-45
2022/04/26 16:56:04;;;;;;;10.55;7.43;;;10.10;99.90;;;;;;4954893;28;20019;-42
2022/04/26 16:58:30;;;;;;;8.05;6.53;;;10.20;99.90;;;;;;4954476;28;20375;-43
2022/04/26 17:00:56;;;;;;;8.98;6.95;;;10.20;99.90;;;;;;4954558;28;20020;-44
2022/04/26 17:03:23;;;;;;;7.28;6.50;;;10.20;99.90;;;;;;4954911;28;20027;-44
2022/04/26 17:05:48;;;;;;;9.43;6.35;;;10.20;99.90;;;;;;4954749;28;20032;-47
2022/04/26 17:08:18;;;;;;;7.30;6.05;;;10.20;99.90;;;;;;4969052;28;20045;-44
2022/04/26 17:10:45;;;;;;;9.18;6.97;;;10.20;99.90;;;;;;4954741;29;20036;-44